createdAt,value
2022-11-01T00:00:42.996Z,8.50
2022-11-01T00:04:24.030Z,6.50
2022-11-01T00:07:40.003Z,6.67
2022-11-01T00:11:02.120Z,7.10
2022-11-01T00:14:09.097Z,7.37
2022-11-01T00:17:28.050Z,7.50
2022-11-01T00:20:49.123Z,7.23
2022-11-01T00:24:14.088Z,6.70
2022-11-01T00:27:24.199Z,5.90
2022-11-01T00:30:47.099Z,6.20
2022-11-01T00:34:06.295Z,5.90
2022-11-01T00:37:41.118Z,6.27
2022-11-01T00:40:44.987Z,6.05
2022-11-01T00:44:07.094Z,6.80
2022-11-01T00:47:17.226Z,6.75
2022-11-01T00:50:33.112Z,6.53
2022-11-01T00:53:53.265Z,6.30
2022-11-01T00:57:12.311Z,6.63
2022-11-01T01:00:31.184Z,6.33
2022-11-01T01:03:50.253Z,5.60
2022-11-01T01:06:54.187Z,6.27
2022-11-01T01:10:33.399Z,6.00
2022-11-01T01:13:40.300Z,6.20
2022-11-01T01:16:59.246Z,6.67
2022-11-01T01:20:21.281Z,5.77
2022-11-01T01:23:41.268Z,6.60
2022-11-01T01:27:01.337Z,6.00
2022-11-01T01:30:35.336Z,5.70
2022-11-01T01:33:45.379Z,5.63
2022-11-01T01:37:04.304Z,5.70
2022-11-01T01:40:20.500Z,6.10
2022-11-01T01:43:56.710Z,6.37
2022-11-01T01:47:00.368Z,5.40
2022-11-01T01:50:31.408Z,4.90
2022-11-01T01:53:53.436Z,6.13
2022-11-01T01:57:15.363Z,5.87
2022-11-01T02:00:33.330Z,5.30
2022-11-01T02:04:06.387Z,5.50
2022-11-01T02:07:37.443Z,6.00
2022-11-01T02:10:56.605Z,5.10
2022-11-01T02:14:33.538Z,4.90
2022-11-01T02:17:51.479Z,5.07
2022-11-01T02:21:28.386Z,4.53
2022-11-01T02:24:59.714Z,5.90
2022-11-01T02:28:40.653Z,5.23
2022-11-01T02:32:02.547Z,5.10
2022-11-01T02:35:42.504Z,5.05
2022-11-01T02:39:01.773Z,4.60
2022-11-01T02:42:38.521Z,5.50
2022-11-01T02:46:00.665Z,5.10
2022-11-01T02:49:34.564Z,5.50
2022-11-01T02:52:51.765Z,4.60
2022-11-01T02:56:25.675Z,4.73
2022-11-01T02:59:47.661Z,4.80
2022-11-01T03:03:21.804Z,4.30
2022-11-01T03:06:43.531Z,4.85
2022-11-01T03:10:21.596Z,4.77
2022-11-01T03:13:45.934Z,5.80
2022-11-01T03:17:25.702Z,4.60
2022-11-01T03:20:44.656Z,5.10
2022-11-01T03:24:12.686Z,4.30
2022-11-01T03:27:30.694Z,4.53
2022-11-01T03:31:04.805Z,4.90
2022-11-01T03:34:20.619Z,4.07
2022-11-01T03:37:51.761Z,3.80
2022-11-01T03:41:16.664Z,4.03
2022-11-01T03:44:57.742Z,3.60
2022-11-01T03:48:02.015Z,4.40
2022-11-01T03:51:32.614Z,4.90
2022-11-01T03:54:36.950Z,4.10
2022-11-01T03:57:53.815Z,3.90
2022-11-01T04:01:10.898Z,3.63
2022-11-01T04:04:42.741Z,3.20
2022-11-01T04:07:46.988Z,4.00
2022-11-01T04:11:08.851Z,3.63
2022-11-01T04:14:16.898Z,4.05
2022-11-01T04:17:56.550Z,3.53
2022-11-01T04:21:15.865Z,3.80
2022-11-01T04:24:37.907Z,3.80
2022-11-01T04:27:44.817Z,3.23
2022-11-01T04:31:18.907Z,3.13
2022-11-01T04:34:43.440Z,3.53
2022-11-01T04:38:03.231Z,3.30
2022-11-01T04:41:12.911Z,3.60
2022-11-01T04:44:34.978Z,3.30
2022-11-01T04:47:44.876Z,3.00
2022-11-01T04:51:17.976Z,3.90
2022-11-01T04:54:34.132Z,3.33
2022-11-01T04:58:08.073Z,2.90
2022-11-01T05:01:27.131Z,3.97
2022-11-01T05:04:58.040Z,3.27
2022-11-01T05:08:21.011Z,3.23
2022-11-01T05:11:42.985Z,3.37
2022-11-01T05:14:56.696Z,3.67
2022-11-01T05:18:12.140Z,3.83
2022-11-01T05:21:19.069Z,3.20
2022-11-01T05:25:00.153Z,3.10
2022-11-01T05:28:16.063Z,3.17
2022-11-01T05:31:38.178Z,3.13
2022-11-01T05:34:45.021Z,3.25
2022-11-01T05:38:04.358Z,2.80
2022-11-01T05:41:26.875Z,2.93
2022-11-01T05:44:52.158Z,3.00
2022-11-01T05:47:56.117Z,2.50
2022-11-01T05:51:16.081Z,3.03
2022-11-01T05:54:20.045Z,3.00
2022-11-01T05:57:53.187Z,2.73
2022-11-01T06:01:00.093Z,3.25
2022-11-01T06:04:25.084Z,2.70
2022-11-01T06:07:29.202Z,2.70
2022-11-01T06:11:01.110Z,2.47
2022-11-01T06:14:24.258Z,2.20
2022-11-01T06:17:41.297Z,2.50
2022-11-01T06:20:57.618Z,2.15
2022-11-01T06:24:17.453Z,2.60
2022-11-01T06:27:24.251Z,2.47
2022-11-01T06:30:57.640Z,2.00
2022-11-01T06:34:07.209Z,1.40
2022-11-01T06:37:38.302Z,1.50
2022-11-01T06:40:42.316Z,1.70
2022-11-01T06:44:07.216Z,1.50
2022-11-01T06:47:32.191Z,1.30
2022-11-01T06:50:57.351Z,1.00
2022-11-01T06:54:07.449Z,1.37
2022-11-01T06:57:33.275Z,0.93
2022-11-01T07:00:56.347Z,1.00
2022-11-01T07:04:34.302Z,1.20
2022-11-01T07:07:57.347Z,0.90
2022-11-01T07:11:19.335Z,0.90
2022-11-01T07:14:38.279Z,0.80
2022-11-01T07:18:00.658Z,0.90
2022-11-01T07:21:20.340Z,1.07
2022-11-01T07:24:39.458Z,0.75
2022-11-01T07:28:01.570Z,1.00
2022-11-01T07:31:20.450Z,1.10
2022-11-01T07:34:27.487Z,0.97
2022-11-01T07:38:05.060Z,0.70
2022-11-01T07:41:09.472Z,1.00
2022-11-01T07:44:31.533Z,1.00
2022-11-01T07:47:47.570Z,0.83
2022-11-01T07:51:22.512Z,0.90
2022-11-01T07:54:42.623Z,1.00
2022-11-01T07:58:04.743Z,1.00
2022-11-01T08:01:08.591Z,0.70
2022-11-01T08:04:30.559Z,0.75
2022-11-01T08:07:37.453Z,0.97
2022-11-01T08:11:18.647Z,1.80
2022-11-01T08:14:34.604Z,1.17
2022-11-01T08:17:54.497Z,1.25
2022-11-01T08:21:01.559Z,0.90
2022-11-01T08:24:24.686Z,0.60
2022-11-01T08:27:44.594Z,1.30
2022-11-01T08:31:15.642Z,1.43
2022-11-01T08:34:19.549Z,1.03
2022-11-01T08:37:35.677Z,1.00
2022-11-01T08:40:51.721Z,1.07
2022-11-01T08:44:28.642Z,0.97
2022-11-01T08:47:35.632Z,1.30
2022-11-01T08:50:58.814Z,1.57
2022-11-01T08:54:17.683Z,1.70
2022-11-01T08:57:40.557Z,1.75
2022-11-01T09:01:03.829Z,1.47
2022-11-01T09:04:22.776Z,2.33
2022-11-01T09:07:41.729Z,2.55
2022-11-01T09:11:06.681Z,1.85
2022-11-01T09:14:26.840Z,1.70
2022-11-01T09:18:02.831Z,1.87
2022-11-01T09:21:33.778Z,1.70
2022-11-01T09:24:55.917Z,1.30
2022-11-01T09:28:02.922Z,1.55
2022-11-01T09:31:33.726Z,2.43
2022-11-01T09:34:57.636Z,1.43
2022-11-01T09:38:28.827Z,1.63
2022-11-01T09:41:49.620Z,1.50
2022-11-01T09:45:23.840Z,3.05
2022-11-01T09:48:42.965Z,1.80
2022-11-01T09:52:17.834Z,1.80
2022-11-01T09:55:39.974Z,2.23
2022-11-01T09:59:15.899Z,1.60
2022-11-01T10:02:40.094Z,2.25
2022-11-01T10:06:12.993Z,2.30
2022-11-01T10:09:34.028Z,1.93
2022-11-01T10:13:07.936Z,1.60
2022-11-01T10:16:26.934Z,2.43
2022-11-01T10:20:04.031Z,2.15
2022-11-01T10:23:19.986Z,2.10
2022-11-01T10:26:56.005Z,2.10
2022-11-01T10:30:12.086Z,2.27
2022-11-01T10:33:46.023Z,1.80
2022-11-01T10:37:02.313Z,1.93
2022-11-01T10:40:43.190Z,2.20
2022-11-01T10:44:03.071Z,2.50
2022-11-01T10:47:37.007Z,1.60
2022-11-01T10:50:52.986Z,1.93
2022-11-01T10:54:27.242Z,2.40
2022-11-01T10:57:50.168Z,2.20
2022-11-01T11:01:31.190Z,1.75
2022-11-01T11:04:44.026Z,1.70
2022-11-01T11:08:21.030Z,2.03
2022-11-01T11:11:40.231Z,1.97
2022-11-01T11:15:16.251Z,2.50
2022-11-01T11:18:39.114Z,2.40
2022-11-01T11:22:16.136Z,1.83
2022-11-01T11:25:41.177Z,2.43
2022-11-01T11:29:16.131Z,1.95
2022-11-01T11:32:38.227Z,2.43
2022-11-01T11:36:21.092Z,1.93
2022-11-01T11:39:50.296Z,2.55
2022-11-01T11:43:22.296Z,2.35
2022-11-01T11:46:32.112Z,2.57
2022-11-01T11:49:54.294Z,2.00
2022-11-01T11:53:15.234Z,2.00
2022-11-01T11:56:52.221Z,2.80
2022-11-01T12:00:14.393Z,1.77
2022-11-01T12:03:48.408Z,2.20
2022-11-01T12:07:07.297Z,1.70
2022-11-01T12:10:40.497Z,2.03
2022-11-01T12:13:59.287Z,2.20
2022-11-01T12:17:33.371Z,2.50
2022-11-01T12:20:49.329Z,1.70
2022-11-01T12:24:23.338Z,1.70
2022-11-01T12:27:46.374Z,1.75
2022-11-01T12:31:17.547Z,1.80
2022-11-01T12:34:35.065Z,1.37
2022-11-01T12:38:08.429Z,2.03
2022-11-01T12:41:25.410Z,2.43
2022-11-01T12:45:07.010Z,1.95
2022-11-01T12:48:35.366Z,2.10
2022-11-01T12:52:09.641Z,1.50
2022-11-01T12:55:26.454Z,1.63
2022-11-01T12:59:00.402Z,1.67
2022-11-01T13:02:19.547Z,1.80
2022-11-01T13:05:57.261Z,1.90
2022-11-01T13:09:16.407Z,1.60
2022-11-01T13:12:56.490Z,1.87
2022-11-01T13:16:17.528Z,1.40
2022-11-01T13:19:49.660Z,1.87
2022-11-01T13:23:05.632Z,1.50
2022-11-01T13:26:39.530Z,1.40
2022-11-01T13:30:03.485Z,1.77
2022-11-01T13:33:31.515Z,1.43
2022-11-01T13:36:48.594Z,1.57
2022-11-01T13:40:28.652Z,1.90
2022-11-01T13:43:44.496Z,1.45
2022-11-01T13:47:23.617Z,2.27
2022-11-01T13:51:07.599Z,1.70
2022-11-01T13:54:46.596Z,1.77
2022-11-01T13:57:56.624Z,1.43
2022-11-01T14:01:33.932Z,1.45
2022-11-01T14:04:58.601Z,2.40
2022-11-01T14:08:20.723Z,2.00
2022-11-01T14:12:02.628Z,1.50
2022-11-01T14:15:23.728Z,2.23
2022-11-01T14:19:06.650Z,1.40
2022-11-01T14:22:13.735Z,2.03
2022-11-01T14:25:56.825Z,1.40
2022-11-01T14:29:15.775Z,1.90
2022-11-01T14:32:44.780Z,1.67
2022-11-01T14:36:04.684Z,1.43
2022-11-01T14:39:42.695Z,1.30
2022-11-01T14:43:10.770Z,1.60
2022-11-01T14:46:46.405Z,1.35
2022-11-01T14:49:59.706Z,1.60
2022-11-01T14:53:35.843Z,1.30
2022-11-01T14:56:51.717Z,1.40
2022-11-01T15:00:19.968Z,1.80
2022-11-01T15:03:35.736Z,1.40
2022-11-01T15:07:06.761Z,1.30
2022-11-01T15:10:24.945Z,1.47
2022-11-01T15:13:57.072Z,1.30
2022-11-01T15:17:13.978Z,2.00
2022-11-01T15:20:54.914Z,1.20
2022-11-01T15:24:13.939Z,1.45
2022-11-01T15:27:47.929Z,1.27
2022-11-01T15:30:54.867Z,1.10
2022-11-01T15:34:22.977Z,1.23
2022-11-01T15:37:47.051Z,1.77
2022-11-01T15:41:05.954Z,1.60
2022-11-01T15:44:28.909Z,1.25
2022-11-01T15:47:59.783Z,1.30
2022-11-01T15:51:21.992Z,1.20
2022-11-01T15:54:59.033Z,1.33
2022-11-01T15:58:19.018Z,1.20
2022-11-01T16:01:58.584Z,1.53
2022-11-01T16:05:25.998Z,1.20
2022-11-01T16:08:48.419Z,1.30
2022-11-01T16:12:22.026Z,1.30
2022-11-01T16:15:49.009Z,1.77
2022-11-01T16:19:24.155Z,1.83
2022-11-01T16:22:55.262Z,1.50
2022-11-01T16:26:34.871Z,1.30
2022-11-01T16:30:08.934Z,1.50
2022-11-01T16:33:57.216Z,1.10
2022-11-01T16:37:17.129Z,1.27
2022-11-01T16:40:55.229Z,1.20
2022-11-01T16:44:15.208Z,1.60
2022-11-01T16:47:50.078Z,1.20
2022-11-01T16:50:53.178Z,1.50
2022-11-01T16:54:28.211Z,1.60
2022-11-01T16:57:50.233Z,2.00
2022-11-01T17:01:25.451Z,1.20
2022-11-01T17:04:44.165Z,1.30
2022-11-01T17:08:19.181Z,1.20
2022-11-01T17:11:54.179Z,1.10
2022-11-01T17:15:14.304Z,1.23
2022-11-01T17:18:33.270Z,1.80
2022-11-01T17:21:56.191Z,1.45
2022-11-01T17:25:12.328Z,1.90
2022-11-01T17:28:49.606Z,1.00
2022-11-01T17:32:00.227Z,1.15
2022-11-01T17:35:24.349Z,1.50
2022-11-01T17:38:40.305Z,1.60
2022-11-01T17:42:02.318Z,1.70
2022-11-01T17:45:25.345Z,1.40
2022-11-01T17:48:44.421Z,1.50
2022-11-01T17:51:53.332Z,1.45
2022-11-01T17:55:13.360Z,1.53
2022-11-01T17:58:29.390Z,2.00
2022-11-01T18:02:07.460Z,1.63
2022-11-01T18:05:38.428Z,1.40
2022-11-01T18:08:59.566Z,1.20
2022-11-01T18:12:31.599Z,0.80
2022-11-01T18:15:54.348Z,1.30
2022-11-01T18:19:29.590Z,1.20
2022-11-01T18:22:48.699Z,1.27
2022-11-01T18:26:10.392Z,1.33
2022-11-01T18:29:29.833Z,1.10
2022-11-01T18:33:04.791Z,1.20
2022-11-01T18:36:22.763Z,1.17
2022-11-01T18:39:54.629Z,1.40
2022-11-01T18:43:13.472Z,1.10
2022-11-01T18:46:46.790Z,2.15
2022-11-01T18:49:50.510Z,0.90
2022-11-01T18:53:25.732Z,1.67
2022-11-01T18:56:47.543Z,1.10
2022-11-01T19:00:09.475Z,1.07
2022-11-01T19:03:35.562Z,1.40
2022-11-01T19:06:57.605Z,1.10
2022-11-01T19:10:19.617Z,1.20
2022-11-01T19:14:00.605Z,1.63
2022-11-01T19:17:04.672Z,1.40
2022-11-01T19:20:42.493Z,1.47
2022-11-01T19:24:09.982Z,1.05
2022-11-01T19:27:40.852Z,1.33
2022-11-01T19:31:02.624Z,1.50
2022-11-01T19:34:36.770Z,1.53
2022-11-01T19:37:55.943Z,1.75
2022-11-01T19:41:20.850Z,2.00
2022-11-01T19:44:44.623Z,1.10
2022-11-01T19:48:22.107Z,1.20
2022-11-01T19:51:50.859Z,1.20
2022-11-01T19:55:10.765Z,2.50
2022-11-01T19:58:35.850Z,2.03
2022-11-01T20:02:10.061Z,1.95
2022-11-01T20:05:43.752Z,1.33
2022-11-01T20:08:59.853Z,1.43
2022-11-01T20:12:22.023Z,1.15
2022-11-01T20:15:35.715Z,1.33
2022-11-01T20:19:05.828Z,1.90
2022-11-01T20:22:09.825Z,1.77
2022-11-01T20:25:32.812Z,1.37
2022-11-01T20:28:39.822Z,1.33
2022-11-01T20:31:58.785Z,1.30
2022-11-01T20:35:18.875Z,1.97
2022-11-01T20:38:40.829Z,1.17
2022-11-01T20:41:48.998Z,1.40
2022-11-01T20:45:10.816Z,1.90
2022-11-01T20:48:32.895Z,2.10
2022-11-01T20:52:37.833Z,1.60
2022-11-01T20:55:20.863Z,1.50
2022-11-01T20:58:37.885Z,2.40
2022-11-01T21:01:41.983Z,1.73
2022-11-01T21:05:16.923Z,1.17
2022-11-01T21:08:39.944Z,1.40
2022-11-01T21:12:14.017Z,1.70
2022-11-01T21:15:36.000Z,1.95
2022-11-01T21:19:04.907Z,1.60
2022-11-01T21:22:23.963Z,2.47
2022-11-01T21:26:04.959Z,1.47
2022-11-01T21:29:24.971Z,1.60
2022-11-01T21:32:59.042Z,1.93
2022-11-01T21:36:18.043Z,1.70
2022-11-01T21:39:49.101Z,1.67
2022-11-01T21:43:10.130Z,1.40
2022-11-01T21:46:47.167Z,1.97
2022-11-01T21:50:06.176Z,1.57
2022-11-01T21:53:28.078Z,1.40
2022-11-01T21:56:32.060Z,2.17
2022-11-01T22:00:07.168Z,1.50
2022-11-01T22:03:27.089Z,1.30
2022-11-01T22:06:31.320Z,1.57
2022-11-01T22:10:05.110Z,2.00
2022-11-01T22:13:12.389Z,1.47
2022-11-01T22:16:45.218Z,1.10
2022-11-01T22:19:49.079Z,1.47
2022-11-01T22:23:06.329Z,2.25
2022-11-01T22:26:40.491Z,1.50
2022-11-01T22:30:00.439Z,1.70
2022-11-01T22:33:17.277Z,2.27
2022-11-01T22:36:46.191Z,1.50
2022-11-01T22:40:06.357Z,1.10
2022-11-01T22:43:40.166Z,2.00
2022-11-01T22:47:06.261Z,1.70
2022-11-01T22:50:44.185Z,2.40
2022-11-01T22:53:51.212Z,1.53
2022-11-01T22:57:25.313Z,1.80
2022-11-01T23:00:58.325Z,1.87
2022-11-01T23:04:26.319Z,2.83
2022-11-01T23:07:51.102Z,1.67
2022-11-01T23:11:22.255Z,1.40
2022-11-01T23:14:37.311Z,1.57
2022-11-01T23:18:00.274Z,1.70
2022-11-01T23:21:20.338Z,1.35
2022-11-01T23:24:51.309Z,2.20
2022-11-01T23:28:10.457Z,0.97
2022-11-01T23:31:41.360Z,2.30
2022-11-01T23:34:57.376Z,1.77
2022-11-01T23:38:28.357Z,1.50
2022-11-01T23:41:46.483Z,1.67
2022-11-01T23:45:17.345Z,1.30
2022-11-01T23:48:43.216Z,2.03
2022-11-01T23:52:13.542Z,1.23
2022-11-01T23:55:50.590Z,1.57
2022-11-01T23:59:30.555Z,1.55
